sensor_id;sensor_type;location;lat;lon;timestamp;pressure;altitude;pressure_sealevel;temperature;humidity
62789;BME280;66401;42.016;21.454;2023-06-14T00:01:49;97910.97;;;17.63;87.17
62789;BME280;66401;42.016;21.454;2023-06-14T00:04:15;97918.94;;;17.68;87.94
62789;BME280;66401;42.016;21.454;2023-06-14T00:06:46;97911.66;;;17.75;86.09
62789;BME280;66401;42.016;21.454;2023-06-14T00:09:12;97891.78;;;17.45;87.44
62789;BME280;66401;42.016;21.454;2023-06-14T00:11:42;97908.59;;;17.39;88.05
62789;BME280;66401;42.016;21.454;2023-06-14T00:14:09;97918.91;;;17.46;88.67
62789;BME280;66401;42.016;21.454;2023-06-14T00:16:35;97925.47;;;17.22;90.33
62789;BME280;66401;42.016;21.454;2023-06-14T00:19:02;97920.34;;;17.15;89.57
62789;BME280;66401;42.016;21.454;2023-06-14T00:21:31;97928.09;;;17.22;89.84
62789;BME280;66401;42.016;21.454;2023-06-14T00:23:58;97929.69;;;17.06;90.33
62789;BME280;66401;42.016;21.454;2023-06-14T00:26:23;97880.81;;;16.71;90.78
62789;BME280;66401;42.016;21.454;2023-06-14T00:28:49;97911.38;;;17.11;89.74
62789;BME280;66401;42.016;21.454;2023-06-14T00:31:14;97921.00;;;17.05;90.51
62789;BME280;66401;42.016;21.454;2023-06-14T00:33:40;97909.25;;;16.91;91.42
62789;BME280;66401;42.016;21.454;2023-06-14T00:36:05;97914.75;;;16.90;92.63
62789;BME280;66401;42.016;21.454;2023-06-14T00:38:31;97914.41;;;17.03;90.54
62789;BME280;66401;42.016;21.454;2023-06-14T00:40:56;97918.31;;;16.83;91.50
62789;BME280;66401;42.016;21.454;2023-06-14T00:43:22;97896.41;;;16.61;92.06
62789;BME280;66401;42.016;21.454;2023-06-14T00:45:47;97911.47;;;16.82;91.70
62789;BME280;66401;42.016;21.454;2023-06-14T00:48:15;97910.94;;;16.80;92.52
62789;BME280;66401;42.016;21.454;2023-06-14T00:50:40;97911.31;;;16.72;91.16
62789;BME280;66401;42.016;21.454;2023-06-14T00:53:07;97911.69;;;16.64;91.75
62789;BME280;66401;42.016;21.454;2023-06-14T00:55:32;97898.06;;;16.67;91.00
62789;BME280;66401;42.016;21.454;2023-06-14T00:57:58;97913.47;;;16.75;91.29
62789;BME280;66401;42.016;21.454;2023-06-14T01:00:24;97894.56;;;16.78;90.56
62789;BME280;66401;42.016;21.454;2023-06-14T01:02:49;97909.94;;;16.86;91.09
62789;BME280;66401;42.016;21.454;2023-06-14T01:05:16;97909.94;;;16.86;91.35
62789;BME280;66401;42.016;21.454;2023-06-14T01:07:49;97907.16;;;16.76;90.33
62789;BME280;66401;42.016;21.454;2023-06-14T01:15:20;97909.94;;;17.03;89.11
62789;BME280;66401;42.016;21.454;2023-06-14T01:17:51;97894.34;;;16.80;89.26
62789;BME280;66401;42.016;21.454;2023-06-14T01:20:19;97911.69;;;16.98;89.08
62789;BME280;66401;42.016;21.454;2023-06-14T01:22:54;97910.56;;;17.10;88.44
62789;BME280;66401;42.016;21.454;2023-06-14T01:25:21;97894.66;;;16.83;91.21
62789;BME280;66401;42.016;21.454;2023-06-14T01:28:00;97911.88;;;16.74;92.81
62789;BME280;66401;42.016;21.454;2023-06-14T01:30:29;97910.88;;;16.64;94.03
62789;BME280;66401;42.016;21.454;2023-06-14T01:32:56;97891.44;;;16.48;95.68
62789;BME280;66401;42.016;21.454;2023-06-14T01:35:23;97901.56;;;16.56;95.52
62789;BME280;66401;42.016;21.454;2023-06-14T01:37:49;97887.47;;;16.45;94.20
62789;BME280;66401;42.016;21.454;2023-06-14T01:40:17;97913.75;;;16.45;95.36
62789;BME280;66401;42.016;21.454;2023-06-14T01:42:46;97913.88;;;16.39;94.85
62789;BME280;66401;42.016;21.454;2023-06-14T01:45:13;97903.22;;;16.45;94.96
62789;BME280;66401;42.016;21.454;2023-06-14T01:47:40;97924.91;;;16.52;95.00
62789;BME280;66401;42.016;21.454;2023-06-14T01:50:06;97926.34;;;16.60;95.16
62789;BME280;66401;42.016;21.454;2023-06-14T01:52:32;97907.56;;;16.51;94.17
62789;BME280;66401;42.016;21.454;2023-06-14T01:54:57;97930.78;;;16.59;95.39
62789;BME280;66401;42.016;21.454;2023-06-14T01:57:24;97925.19;;;16.39;94.89
62789;BME280;66401;42.016;21.454;2023-06-14T01:59:51;97930.63;;;16.33;95.78
62789;BME280;66401;42.016;21.454;2023-06-14T02:02:17;97922.50;;;16.34;96.24
62789;BME280;66401;42.016;21.454;2023-06-14T02:04:44;97921.00;;;16.55;95.23
62789;BME280;66401;42.016;21.454;2023-06-14T02:07:12;97933.81;;;16.80;92.72
62789;BME280;66401;42.016;21.454;2023-06-14T02:09:37;97943.09;;;16.87;91.71
62789;BME280;66401;42.016;21.454;2023-06-14T02:12:03;97955.84;;;16.96;89.72
62789;BME280;66401;42.016;21.454;2023-06-14T02:14:29;97947.50;;;16.99;89.34
62789;BME280;66401;42.016;21.454;2023-06-14T02:16:54;97947.56;;;17.04;88.55
62789;BME280;66401;42.016;21.454;2023-06-14T02:19:20;97942.31;;;17.04;88.86
62789;BME280;66401;42.016;21.454;2023-06-14T02:21:46;97925.41;;;17.00;88.17
62789;BME280;66401;42.016;21.454;2023-06-14T02:24:11;97947.41;;;17.10;88.46
62789;BME280;66401;42.016;21.454;2023-06-14T02:26:37;97942.44;;;17.14;87.59
62789;BME280;66401;42.016;21.454;2023-06-14T02:29:09;97943.56;;;17.18;87.96
62789;BME280;66401;42.016;21.454;2023-06-14T02:31:36;97947.56;;;17.04;89.70
62789;BME280;66401;42.016;21.454;2023-06-14T02:34:02;97945.19;;;17.02;90.72
62789;BME280;66401;42.016;21.454;2023-06-14T02:36:27;97933.06;;;17.01;89.92
62789;BME280;66401;42.016;21.454;2023-06-14T02:38:56;97944.53;;;17.12;89.36
62789;BME280;66401;42.016;21.454;2023-06-14T02:41:23;97949.84;;;17.17;88.80
62789;BME280;66401;42.016;21.454;2023-06-14T02:43:49;97945.16;;;17.19;89.24
62789;BME280;66401;42.016;21.454;2023-06-14T02:46:14;97937.19;;;17.14;87.99
62789;BME280;66401;42.016;21.454;2023-06-14T02:48:43;97945.28;;;16.91;90.39
62789;BME280;66401;42.016;21.454;2023-06-14T02:51:09;97948.75;;;16.96;90.32
62789;BME280;66401;42.016;21.454;2023-06-14T02:53:35;97927.31;;;16.54;90.80
62789;BME280;66401;42.016;21.454;2023-06-14T02:56:01;97947.69;;;16.47;91.85
62789;BME280;66401;42.016;21.454;2023-06-14T02:58:29;97945.97;;;16.69;91.32
62789;BME280;66401;42.016;21.454;2023-06-14T03:00:54;97952.28;;;16.40;94.12
62789;BME280;66401;42.016;21.454;2023-06-14T03:03:20;97950.00;;;16.15;95.13
62789;BME280;66401;42.016;21.454;2023-06-14T03:05:47;97956.53;;;16.12;95.58
62789;BME280;66401;42.016;21.454;2023-06-14T03:08:16;97938.72;;;16.14;95.33
62789;BME280;66401;42.016;21.454;2023-06-14T03:10:47;97953.75;;;16.19;95.75
62789;BME280;66401;42.016;21.454;2023-06-14T03:13:13;97946.84;;;16.01;96.15
62789;BME280;66401;42.016;21.454;2023-06-14T03:15:39;97953.13;;;16.00;96.50
62789;BME280;66401;42.016;21.454;2023-06-14T03:18:10;97944.63;;;15.93;96.31
62789;BME280;66401;42.016;21.454;2023-06-14T03:20:38;97957.47;;;16.06;95.56
62789;BME280;66401;42.016;21.454;2023-06-14T03:23:04;97955.47;;;15.85;95.54
62789;BME280;66401;42.016;21.454;2023-06-14T03:25:31;97950.59;;;15.77;95.88
62789;BME280;66401;42.016;21.454;2023-06-14T03:27:58;97966.19;;;15.95;95.37
62789;BME280;66401;42.016;21.454;2023-06-14T03:30:23;97962.34;;;15.86;94.76
62789;BME280;66401;42.016;21.454;2023-06-14T03:32:49;97971.47;;;15.71;95.84
62789;BME280;66401;42.016;21.454;2023-06-14T03:35:17;97958.25;;;15.66;96.03
62789;BME280;66401;42.016;21.454;2023-06-14T03:37:46;97973.19;;;15.78;97.10
62789;BME280;66401;42.016;21.454;2023-06-14T03:40:13;97983.09;;;15.87;95.03
62789;BME280;66401;42.016;21.454;2023-06-14T03:42:39;97964.84;;;15.81;95.21
62789;BME280;66401;42.016;21.454;2023-06-14T03:45:06;97972.03;;;15.85;96.17
62789;BME280;66401;42.016;21.454;2023-06-14T03:47:32;97966.50;;;15.98;95.39
62789;BME280;66401;42.016;21.454;2023-06-14T03:49:57;97967.66;;;15.91;94.09
62789;BME280;66401;42.016;21.454;2023-06-14T03:52:23;97974.78;;;16.19;93.57
62789;BME280;66401;42.016;21.454;2023-06-14T03:54:48;97970.97;;;15.98;93.44
62789;BME280;66401;42.016;21.454;2023-06-14T03:57:15;97975.00;;;16.17;91.93
62789;BME280;66401;42.016;21.454;2023-06-14T03:59:40;97971.09;;;16.31;91.63
62789;BME280;66401;42.016;21.454;2023-06-14T04:02:06;97980.97;;;16.41;91.17
62789;BME280;66401;42.016;21.454;2023-06-14T04:04:32;97965.25;;;16.29;90.85
62789;BME280;66401;42.016;21.454;2023-06-14T04:06:58;97982.22;;;16.22;92.16
62789;BME280;66401;42.016;21.454;2023-06-14T04:09:25;97988.75;;;16.36;91.30
62789;BME280;66401;42.016;21.454;2023-06-14T04:11:54;97970.69;;;16.11;92.17
62789;BME280;66401;42.016;21.454;2023-06-14T04:14:20;97986.84;;;16.31;91.44
62789;BME280;66401;42.016;21.454;2023-06-14T04:16:47;97981.59;;;16.31;91.65
62789;BME280;66401;42.016;21.454;2023-06-14T04:19:13;97993.69;;;16.61;90.84
62789;BME280;66401;42.016;21.454;2023-06-14T04:21:38;97988.25;;;16.79;90.04
62789;BME280;66401;42.016;21.454;2023-06-14T04:24:05;97991.97;;;16.83;88.42
62789;BME280;66401;42.016;21.454;2023-06-14T04:26:32;97993.50;;;16.79;88.36
62789;BME280;66401;42.016;21.454;2023-06-14T04:28:59;97987.91;;;16.93;89.10
62789;BME280;66401;42.016;21.454;2023-06-14T04:31:30;97970.28;;;16.76;89.44
62789;BME280;66401;42.016;21.454;2023-06-14T04:33:59;97981.44;;;16.83;89.28
62789;BME280;66401;42.016;21.454;2023-06-14T04:36:24;97975.72;;;17.03;88.42
62789;BME280;66401;42.016;21.454;2023-06-14T04:38:50;97974.81;;;17.14;88.01
62789;BME280;66401;42.016;21.454;2023-06-14T04:41:20;98000.19;;;17.04;87.70
62789;BME280;66401;42.016;21.454;2023-06-14T04:43:48;97991.72;;;16.85;88.48
62789;BME280;66401;42.016;21.454;2023-06-14T04:46:14;97987.75;;;16.82;89.50
62789;BME280;66401;42.016;21.454;2023-06-14T04:48:40;97991.19;;;16.83;89.66
62789;BME280;66401;42.016;21.454;2023-06-14T04:51:08;98008.25;;;16.80;89.68
62789;BME280;66401;42.016;21.454;2023-06-14T04:53:35;98006.09;;;16.94;89.26
62789;BME280;66401;42.016;21.454;2023-06-14T04:56:00;98010.56;;;16.94;88.70
62789;BME280;66401;42.016;21.454;2023-06-14T04:58:27;97999.88;;;17.00;89.46
62789;BME280;66401;42.016;21.454;2023-06-14T05:00:56;98012.16;;;17.28;87.52
62789;BME280;66401;42.016;21.454;2023-06-14T05:03:25;98007.75;;;17.34;85.62
62789;BME280;66401;42.016;21.454;2023-06-14T05:05:50;98003.53;;;17.16;86.10
62789;BME280;66401;42.016;21.454;2023-06-14T05:08:18;97981.28;;;17.07;86.85
62789;BME280;66401;42.016;21.454;2023-06-14T05:10:45;98010.06;;;17.13;87.86
62789;BME280;66401;42.016;21.454;2023-06-14T05:13:10;98004.00;;;17.13;89.23
62789;BME280;66401;42.016;21.454;2023-06-14T05:15:36;98006.25;;;17.21;88.74
62789;BME280;66401;42.016;21.454;2023-06-14T05:18:02;98004.41;;;16.88;88.81
62789;BME280;66401;42.016;21.454;2023-06-14T05:20:27;98011.81;;;17.08;88.27
62789;BME280;66401;42.016;21.454;2023-06-14T05:22:54;98019.09;;;17.01;88.58
62789;BME280;66401;42.016;21.454;2023-06-14T05:25:20;98018.66;;;17.26;88.39
62789;BME280;66401;42.016;21.454;2023-06-14T05:27:46;98033.72;;;17.64;85.76
62789;BME280;66401;42.016;21.454;2023-06-14T05:30:13;98023.50;;;17.67;85.81
62789;BME280;66401;42.016;21.454;2023-06-14T05:32:38;98026.59;;;17.81;85.77
62789;BME280;66401;42.016;21.454;2023-06-14T05:35:04;98026.34;;;17.66;85.86
62789;BME280;66401;42.016;21.454;2023-06-14T05:37:31;98029.97;;;17.60;86.09
62789;BME280;66401;42.016;21.454;2023-06-14T05:39:57;98024.81;;;17.48;85.22
62789;BME280;66401;42.016;21.454;2023-06-14T05:42:22;98034.69;;;17.58;86.64
62789;BME280;66401;42.016;21.454;2023-06-14T05:44:48;98042.16;;;17.66;86.99
62789;BME280;66401;42.016;21.454;2023-06-14T05:47:14;98040.31;;;17.83;86.89
62789;BME280;66401;42.016;21.454;2023-06-14T05:49:39;98034.84;;;17.51;86.95
62789;BME280;66401;42.016;21.454;2023-06-14T05:52:05;98032.72;;;17.31;86.24
62789;BME280;66401;42.016;21.454;2023-06-14T05:54:31;98040.19;;;17.56;87.31
62789;BME280;66401;42.016;21.454;2023-06-14T05:56:56;98052.25;;;18.08;85.33
62789;BME280;66401;42.016;21.454;2023-06-14T05:59:29;98049.19;;;18.16;84.15
62789;BME280;66401;42.016;21.454;2023-06-14T06:01:55;98048.97;;;18.44;83.17
62789;BME280;66401;42.016;21.454;2023-06-14T06:04:20;98046.00;;;18.63;83.50
62789;BME280;66401;42.016;21.454;2023-06-14T06:06:46;98047.38;;;18.92;82.19
62789;BME280;66401;42.016;21.454;2023-06-14T06:09:13;98052.59;;;18.87;81.95
62789;BME280;66401;42.016;21.454;2023-06-14T06:11:40;98048.81;;;18.56;80.23
62789;BME280;66401;42.016;21.454;2023-06-14T06:14:05;98056.63;;;18.46;81.88
62789;BME280;66401;42.016;21.454;2023-06-14T06:16:31;98057.56;;;18.62;82.46
62789;BME280;66401;42.016;21.454;2023-06-14T06:18:57;98052.94;;;18.69;81.31
62789;BME280;66401;42.016;21.454;2023-06-14T06:21:22;98048.25;;;18.76;80.41
62789;BME280;66401;42.016;21.454;2023-06-14T06:23:48;98031.53;;;18.92;80.92
62789;BME280;66401;42.016;21.454;2023-06-14T06:26:13;98047.97;;;18.72;80.59
62789;BME280;66401;42.016;21.454;2023-06-14T06:28:38;98052.25;;;19.10;80.49
62789;BME280;66401;42.016;21.454;2023-06-14T06:31:04;98053.78;;;19.38;79.05
62789;BME280;66401;42.016;21.454;2023-06-14T06:33:30;98054.84;;;19.75;77.33
62789;BME280;66401;42.016;21.454;2023-06-14T06:35:56;98046.44;;;19.83;77.14
62789;BME280;66401;42.016;21.454;2023-06-14T06:38:21;98059.38;;;19.47;78.07
62789;BME280;66401;42.016;21.454;2023-06-14T06:40:46;98062.25;;;19.72;77.83
62789;BME280;66401;42.016;21.454;2023-06-14T06:43:12;98039.63;;;19.97;77.56
62789;BME280;66401;42.016;21.454;2023-06-14T06:45:42;98055.09;;;20.36;75.28
62789;BME280;66401;42.016;21.454;2023-06-14T06:48:08;98057.88;;;20.66;73.09
62789;BME280;66401;42.016;21.454;2023-06-14T06:50:36;98051.63;;;20.25;74.58
62789;BME280;66401;42.016;21.454;2023-06-14T06:53:01;98055.25;;;19.98;76.95
62789;BME280;66401;42.016;21.454;2023-06-14T06:55:27;98058.25;;;20.17;77.29
62789;BME280;66401;42.016;21.454;2023-06-14T06:57:52;98057.50;;;19.05;78.67
62789;BME280;66401;42.016;21.454;2023-06-14T07:00:19;98067.16;;;19.27;78.54
62789;BME280;66401;42.016;21.454;2023-06-14T07:02:45;98063.88;;;19.84;77.72
62789;BME280;66401;42.016;21.454;2023-06-14T07:05:11;98065.59;;;19.26;78.30
62789;BME280;66401;42.016;21.454;2023-06-14T07:07:36;98076.75;;;19.38;78.73
62789;BME280;66401;42.016;21.454;2023-06-14T07:10:02;98076.84;;;19.16;76.60
62789;BME280;66401;42.016;21.454;2023-06-14T07:12:33;98069.66;;;19.06;76.50
62789;BME280;66401;42.016;21.454;2023-06-14T07:15:01;98068.22;;;19.26;78.66
62789;BME280;66401;42.016;21.454;2023-06-14T07:17:26;98067.97;;;19.59;79.01
62789;BME280;66401;42.016;21.454;2023-06-14T07:19:52;98039.84;;;19.48;75.26
62789;BME280;66401;42.016;21.454;2023-06-14T07:22:18;98042.34;;;19.60;74.21
62789;BME280;66401;42.016;21.454;2023-06-14T07:24:44;98054.91;;;19.85;73.65
62789;BME280;66401;42.016;21.454;2023-06-14T07:27:09;98054.03;;;20.26;74.64
62789;BME280;66401;42.016;21.454;2023-06-14T07:29:36;98039.03;;;19.85;72.25
62789;BME280;66401;42.016;21.454;2023-06-14T07:32:01;98052.28;;;19.90;72.09
62789;BME280;66401;42.016;21.454;2023-06-14T07:34:27;98050.75;;;19.99;71.76
62789;BME280;66401;42.016;21.454;2023-06-14T07:36:52;98055.91;;;20.36;72.55
62789;BME280;66401;42.016;21.454;2023-06-14T07:39:19;98052.44;;;20.20;72.30
62789;BME280;66401;42.016;21.454;2023-06-14T07:41:45;98026.59;;;20.43;72.14
62789;BME280;66401;42.016;21.454;2023-06-14T07:44:16;98041.81;;;20.10;72.38
62789;BME280;66401;42.016;21.454;2023-06-14T07:46:42;98055.22;;;20.56;70.07
62789;BME280;66401;42.016;21.454;2023-06-14T07:49:08;98050.75;;;21.02;70.31
62789;BME280;66401;42.016;21.454;2023-06-14T07:51:34;98046.28;;;21.18;68.91
62789;BME280;66401;42.016;21.454;2023-06-14T07:54:00;98040.72;;;21.09;68.67
62789;BME280;66401;42.016;21.454;2023-06-14T07:56:28;98051.59;;;21.33;67.61
62789;BME280;66401;42.016;21.454;2023-06-14T07:58:54;98038.88;;;21.40;67.79
62789;BME280;66401;42.016;21.454;2023-06-14T08:01:19;98043.06;;;21.72;67.26
62789;BME280;66401;42.016;21.454;2023-06-14T08:03:45;98042.97;;;22.03;67.34
62789;BME280;66401;42.016;21.454;2023-06-14T08:06:11;98039.25;;;22.04;66.05
62789;BME280;66401;42.016;21.454;2023-06-14T08:08:37;98034.34;;;22.36;64.86
62789;BME280;66401;42.016;21.454;2023-06-14T08:11:02;98038.41;;;22.68;65.75
62789;BME280;66401;42.016;21.454;2023-06-14T08:13:28;98047.78;;;22.55;63.63
62789;BME280;66401;42.016;21.454;2023-06-14T08:15:53;98037.50;;;22.43;66.00
62789;BME280;66401;42.016;21.454;2023-06-14T08:18:19;98022.69;;;22.32;64.61
62789;BME280;66401;42.016;21.454;2023-06-14T08:20:44;98037.69;;;21.87;65.34
62789;BME280;66401;42.016;21.454;2023-06-14T08:23:10;98033.94;;;22.04;68.73
62789;BME280;66401;42.016;21.454;2023-06-14T08:25:36;98039.47;;;22.17;66.14
62789;BME280;66401;42.016;21.454;2023-06-14T08:28:02;98041.38;;;22.12;65.87
62789;BME280;66401;42.016;21.454;2023-06-14T08:30:27;98038.00;;;22.45;64.67
62789;BME280;66401;42.016;21.454;2023-06-14T08:32:53;98035.56;;;22.59;64.67
62789;BME280;66401;42.016;21.454;2023-06-14T08:35:20;98034.78;;;22.59;63.07
62789;BME280;66401;42.016;21.454;2023-06-14T08:37:46;98014.34;;;22.54;66.75
62789;BME280;66401;42.016;21.454;2023-06-14T08:42:43;98026.66;;;22.35;64.67
62789;BME280;66401;42.016;21.454;2023-06-14T08:45:09;98021.59;;;22.82;66.43
62789;BME280;66401;42.016;21.454;2023-06-14T08:47:35;98022.50;;;23.07;62.67
62789;BME280;66401;42.016;21.454;2023-06-14T08:50:02;98033.91;;;23.07;61.13
62789;BME280;66401;42.016;21.454;2023-06-14T08:52:33;98034.84;;;23.22;63.29
62789;BME280;66401;42.016;21.454;2023-06-14T08:55:08;98036.31;;;23.04;62.21
62789;BME280;66401;42.016;21.454;2023-06-14T08:57:37;98041.84;;;23.70;62.24
62789;BME280;66401;42.016;21.454;2023-06-14T09:00:03;98038.41;;;23.94;60.61
62789;BME280;66401;42.016;21.454;2023-06-14T09:02:37;98034.81;;;23.85;61.71
62789;BME280;66401;42.016;21.454;2023-06-14T09:05:03;98031.63;;;23.25;61.23
62789;BME280;66401;42.016;21.454;2023-06-14T09:07:28;98009.66;;;23.43;60.70
62789;BME280;66401;42.016;21.454;2023-06-14T09:10:14;98001.94;;;23.76;61.99
62789;BME280;66401;42.016;21.454;2023-06-14T09:12:40;98008.47;;;23.83;60.20
62789;BME280;66401;42.016;21.454;2023-06-14T09:15:06;97997.72;;;23.69;60.10
62789;BME280;66401;42.016;21.454;2023-06-14T09:17:39;98000.41;;;23.40;61.36
62789;BME280;66401;42.016;21.454;2023-06-14T09:20:07;97995.69;;;23.61;61.16
62789;BME280;66401;42.016;21.454;2023-06-14T09:22:38;97983.44;;;23.65;61.46
62789;BME280;66401;42.016;21.454;2023-06-14T09:25:05;97996.00;;;24.03;59.81
62789;BME280;66401;42.016;21.454;2023-06-14T09:27:31;97998.91;;;24.25;59.38
62789;BME280;66401;42.016;21.454;2023-06-14T09:29:56;97984.06;;;24.00;60.80
62789;BME280;66401;42.016;21.454;2023-06-14T09:32:22;97975.38;;;23.70;57.10
62789;BME280;66401;42.016;21.454;2023-06-14T09:34:48;97976.56;;;23.59;59.76
62789;BME280;66401;42.016;21.454;2023-06-14T09:37:29;97987.19;;;24.26;60.45
62789;BME280;66401;42.016;21.454;2023-06-14T09:39:56;97979.69;;;24.52;57.01
62789;BME280;66401;42.016;21.454;2023-06-14T09:42:22;97979.97;;;25.02;56.31
62789;BME280;66401;42.016;21.454;2023-06-14T09:44:51;97976.25;;;24.98;56.08
62789;BME280;66401;42.016;21.454;2023-06-14T09:47:17;97981.22;;;25.51;54.75
62789;BME280;66401;42.016;21.454;2023-06-14T09:49:43;97978.66;;;25.32;55.14
62789;BME280;66401;42.016;21.454;2023-06-14T09:52:14;97969.50;;;25.05;52.98
62789;BME280;66401;42.016;21.454;2023-06-14T09:54:42;97965.56;;;24.51;53.24
62789;BME280;66401;42.016;21.454;2023-06-14T09:57:21;97966.03;;;23.97;55.92
62789;BME280;66401;42.016;21.454;2023-06-14T09:59:48;97959.66;;;23.93;56.70
62789;BME280;66401;42.016;21.454;2023-06-14T10:02:35;97956.25;;;24.30;58.79
62789;BME280;66401;42.016;21.454;2023-06-14T10:07:35;97954.22;;;23.84;60.32
62789;BME280;66401;42.016;21.454;2023-06-14T10:10:04;97947.34;;;23.54;58.92
62789;BME280;66401;42.016;21.454;2023-06-14T10:12:31;97945.03;;;23.95;57.56
62789;BME280;66401;42.016;21.454;2023-06-14T10:14:56;97933.06;;;24.68;57.63
62789;BME280;66401;42.016;21.454;2023-06-14T10:22:44;97916.00;;;24.37;58.08
62789;BME280;66401;42.016;21.454;2023-06-14T10:25:13;97898.72;;;24.53;55.77
62789;BME280;66401;42.016;21.454;2023-06-14T10:27:51;97911.00;;;25.14;55.56
62789;BME280;66401;42.016;21.454;2023-06-14T10:30:16;97904.19;;;25.08;52.99
62789;BME280;66401;42.016;21.454;2023-06-14T10:33:05;97911.31;;;25.40;52.07
62789;BME280;66401;42.016;21.454;2023-06-14T10:35:31;97911.03;;;26.05;51.95
62789;BME280;66401;42.016;21.454;2023-06-14T10:38:07;97903.66;;;26.24;51.12
62789;BME280;66401;42.016;21.454;2023-06-14T10:40:33;97907.19;;;26.47;49.95
62789;BME280;66401;42.016;21.454;2023-06-14T10:42:59;97901.19;;;26.28;52.80
62789;BME280;66401;42.016;21.454;2023-06-14T10:45:24;97899.03;;;26.52;51.30
62789;BME280;66401;42.016;21.454;2023-06-14T10:47:50;97889.34;;;26.57;48.35
62789;BME280;66401;42.016;21.454;2023-06-14T10:50:27;97874.44;;;26.95;48.80
62789;BME280;66401;42.016;21.454;2023-06-14T10:52:54;97881.75;;;27.03;50.14
62789;BME280;66401;42.016;21.454;2023-06-14T10:55:22;97886.69;;;27.19;49.18
62789;BME280;66401;42.016;21.454;2023-06-14T11:00:23;97887.38;;;25.90;49.90
62789;BME280;66401;42.016;21.454;2023-06-14T11:05:30;97898.53;;;26.28;51.80
62789;BME280;66401;42.016;21.454;2023-06-14T11:10:41;97863.91;;;25.51;52.59
62789;BME280;66401;42.016;21.454;2023-06-14T11:13:08;97884.63;;;25.81;53.42
62789;BME280;66401;42.016;21.454;2023-06-14T11:15:38;97881.13;;;25.94;52.74
62789;BME280;66401;42.016;21.454;2023-06-14T11:18:05;97885.44;;;25.40;55.07
62789;BME280;66401;42.016;21.454;2023-06-14T11:20:33;97879.22;;;25.73;53.48
62789;BME280;66401;42.016;21.454;2023-06-14T11:22:59;97868.16;;;25.24;55.16
62789;BME280;66401;42.016;21.454;2023-06-14T11:25:25;97862.53;;;25.39;55.12
62789;BME280;66401;42.016;21.454;2023-06-14T11:27:52;97858.00;;;25.26;54.19
62789;BME280;66401;42.016;21.454;2023-06-14T11:30:18;97870.56;;;24.79;55.93
62789;BME280;66401;42.016;21.454;2023-06-14T11:32:51;97851.47;;;25.32;54.57
62789;BME280;66401;42.016;21.454;2023-06-14T11:35:19;97859.13;;;25.89;55.12
62789;BME280;66401;42.016;21.454;2023-06-14T11:37:48;97858.91;;;25.85;53.84
62789;BME280;66401;42.016;21.454;2023-06-14T11:40:14;97851.91;;;26.12;54.25
62789;BME280;66401;42.016;21.454;2023-06-14T11:42:41;97842.16;;;26.30;53.12
62789;BME280;66401;42.016;21.454;2023-06-14T11:45:11;97848.19;;;25.63;53.86
62789;BME280;66401;42.016;21.454;2023-06-14T11:47:38;97850.00;;;26.26;51.70
62789;BME280;66401;42.016;21.454;2023-06-14T11:50:06;97850.16;;;26.52;50.29
62789;BME280;66401;42.016;21.454;2023-06-14T11:52:32;97835.06;;;26.47;48.85
62789;BME280;66401;42.016;21.454;2023-06-14T11:54:58;97842.31;;;26.33;49.08
62789;BME280;66401;42.016;21.454;2023-06-14T11:57:24;97836.41;;;26.36;51.00
62789;BME280;66401;42.016;21.454;2023-06-14T11:59:51;97844.16;;;26.02;51.88
62789;BME280;66401;42.016;21.454;2023-06-14T12:02:18;97837.75;;;26.47;52.07
62789;BME280;66401;42.016;21.454;2023-06-14T12:04:46;97837.69;;;26.39;50.47
62789;BME280;66401;42.016;21.454;2023-06-14T12:07:16;97829.59;;;26.30;53.18
62789;BME280;66401;42.016;21.454;2023-06-14T12:12:28;97844.97;;;25.11;55.40
62789;BME280;66401;42.016;21.454;2023-06-14T12:14:57;97846.50;;;24.98;54.96
62789;BME280;66401;42.016;21.454;2023-06-14T12:17:22;97804.50;;;24.81;55.28
62789;BME280;66401;42.016;21.454;2023-06-14T12:19:49;97847.59;;;24.97;55.95
62789;BME280;66401;42.016;21.454;2023-06-14T12:22:16;97844.75;;;24.94;55.61
62789;BME280;66401;42.016;21.454;2023-06-14T12:24:45;97824.84;;;24.59;57.11
62789;BME280;66401;42.016;21.454;2023-06-14T12:27:12;97835.03;;;24.70;56.95
62789;BME280;66401;42.016;21.454;2023-06-14T12:29:41;97821.22;;;24.68;55.51
62789;BME280;66401;42.016;21.454;2023-06-14T12:32:09;97830.97;;;24.26;54.86
62789;BME280;66401;42.016;21.454;2023-06-14T12:34:34;97831.81;;;24.41;55.53
62789;BME280;66401;42.016;21.454;2023-06-14T12:37:01;97829.50;;;24.53;54.44
62789;BME280;66401;42.016;21.454;2023-06-14T12:39:28;97826.63;;;24.31;56.66
62789;BME280;66401;42.016;21.454;2023-06-14T12:41:55;97828.75;;;24.34;57.55
62789;BME280;66401;42.016;21.454;2023-06-14T12:44:20;97819.59;;;24.40;56.62
62789;BME280;66401;42.016;21.454;2023-06-14T12:46:46;97810.16;;;24.28;57.35
62789;BME280;66401;42.016;21.454;2023-06-14T12:49:12;97816.09;;;24.25;62.29
62789;BME280;66401;42.016;21.454;2023-06-14T12:51:39;97817.09;;;24.62;60.97
62789;BME280;66401;42.016;21.454;2023-06-14T12:54:05;97801.09;;;24.90;58.80
62789;BME280;66401;42.016;21.454;2023-06-14T12:56:30;97794.53;;;25.01;57.15
62789;BME280;66401;42.016;21.454;2023-06-14T12:58:57;97799.91;;;24.68;60.06
62789;BME280;66401;42.016;21.454;2023-06-14T13:01:22;97775.00;;;24.32;61.78
62789;BME280;66401;42.016;21.454;2023-06-14T13:03:48;97799.72;;;24.65;62.13
62789;BME280;66401;42.016;21.454;2023-06-14T13:06:15;97797.19;;;24.08;61.14
62789;BME280;66401;42.016;21.454;2023-06-14T13:08:40;97802.69;;;24.31;61.34
62789;BME280;66401;42.016;21.454;2023-06-14T13:11:06;97801.56;;;24.18;57.65
62789;BME280;66401;42.016;21.454;2023-06-14T13:13:31;97781.22;;;24.08;58.39
62789;BME280;66401;42.016;21.454;2023-06-14T13:15:56;97807.97;;;24.49;56.32